sensor_id;sensor_type;location;lat;lon;timestamp;pressure;altitude;pressure_sealevel;temperature;humidity
56568;BME280;42456;49.956;20.004;2023-02-17T00:01:13;98916.66;;;-1.19;82.50
56568;BME280;42456;49.956;20.004;2023-02-17T00:03:40;98916.88;;;-1.18;82.78
56568;BME280;42456;49.956;20.004;2023-02-17T00:06:09;98917.75;;;-1.17;82.71
56568;BME280;42456;49.956;20.004;2023-02-17T00:08:37;98917.43;;;-1.17;82.80
56568;BME280;42456;49.956;20.004;2023-02-17T00:11:04;98910.33;;;-1.19;82.39
56568;BME280;42456;49.956;20.004;2023-02-17T00:13:31;98913.76;;;-1.22;82.46
56568;BME280;42456;49.956;20.004;2023-02-17T00:15:58;98915.42;;;-1.23;82.45
56568;BME280;42456;49.956;20.004;2023-02-17T00:18:25;98913.39;;;-1.25;82.46
56568;BME280;42456;49.956;20.004;2023-02-17T00:20:52;98914.33;;;-1.26;82.82
56568;BME280;42456;49.956;20.004;2023-02-17T00:23:19;98910.86;;;-1.28;82.72
56568;BME280;42456;49.956;20.004;2023-02-17T00:25:46;98913.00;;;-1.29;82.65
56568;BME280;42456;49.956;20.004;2023-02-17T00:28:12;98912.61;;;-1.30;82.71
56568;BME280;42456;49.956;20.004;2023-02-17T00:30:39;98909.32;;;-1.31;82.64
56568;BME280;42456;49.956;20.004;2023-02-17T00:33:06;98907.53;;;-1.33;82.70
56568;BME280;42456;49.956;20.004;2023-02-17T00:35:33;98910.29;;;-1.35;82.74
56568;BME280;42456;49.956;20.004;2023-02-17T00:38:04;98907.63;;;-1.37;82.83
56568;BME280;42456;49.956;20.004;2023-02-17T00:40:30;98907.69;;;-1.39;82.81
56568;BME280;42456;49.956;20.004;2023-02-17T00:42:57;98899.23;;;-1.41;82.85
56568;BME280;42456;49.956;20.004;2023-02-17T00:45:24;98894.80;;;-1.43;82.87
56568;BME280;42456;49.956;20.004;2023-02-17T00:47:50;98894.06;;;-1.46;82.85
56568;BME280;42456;49.956;20.004;2023-02-17T00:50:17;98892.83;;;-1.47;82.81
56568;BME280;42456;49.956;20.004;2023-02-17T00:52:44;98890.90;;;-1.48;82.91
56568;BME280;42456;49.956;20.004;2023-02-17T00:55:11;98888.56;;;-1.49;82.69
56568;BME280;42456;49.956;20.004;2023-02-17T00:57:38;98881.92;;;-1.52;82.84
56568;BME280;42456;49.956;20.004;2023-02-17T01:00:05;98875.66;;;-1.54;83.16
56568;BME280;42456;49.956;20.004;2023-02-17T01:02:32;98874.75;;;-1.58;82.69
56568;BME280;42456;49.956;20.004;2023-02-17T01:04:59;98872.52;;;-1.61;82.67
56568;BME280;42456;49.956;20.004;2023-02-17T01:07:26;98866.11;;;-1.63;82.87
56568;BME280;42456;49.956;20.004;2023-02-17T01:09:53;98864.02;;;-1.64;82.92
56568;BME280;42456;49.956;20.004;2023-02-17T01:12:19;98868.83;;;-1.63;83.30
56568;BME280;42456;49.956;20.004;2023-02-17T01:14:47;98867.13;;;-1.63;83.12
56568;BME280;42456;49.956;20.004;2023-02-17T01:17:14;98864.66;;;-1.64;83.44
56568;BME280;42456;49.956;20.004;2023-02-17T01:19:41;98860.15;;;-1.65;83.10
56568;BME280;42456;49.956;20.004;2023-02-17T01:22:08;98856.80;;;-1.67;83.29
56568;BME280;42456;49.956;20.004;2023-02-17T01:24:37;98851.87;;;-1.68;83.09
56568;BME280;42456;49.956;20.004;2023-02-17T01:27:04;98850.36;;;-1.70;83.31
56568;BME280;42456;49.956;20.004;2023-02-17T01:29:31;98843.04;;;-1.70;83.55
56568;BME280;42456;49.956;20.004;2023-02-17T01:31:58;98837.54;;;-1.70;83.42
56568;BME280;42456;49.956;20.004;2023-02-17T01:34:25;98833.96;;;-1.70;83.43
56568;BME280;42456;49.956;20.004;2023-02-17T01:36:51;98828.25;;;-1.68;83.69
56568;BME280;42456;49.956;20.004;2023-02-17T01:39:19;98824.09;;;-1.65;84.07
56568;BME280;42456;49.956;20.004;2023-02-17T01:41:45;98820.23;;;-1.63;83.56
56568;BME280;42456;49.956;20.004;2023-02-17T01:44:17;98821.20;;;-1.61;83.82
56568;BME280;42456;49.956;20.004;2023-02-17T01:46:46;98816.38;;;-1.60;83.39
56568;BME280;42456;49.956;20.004;2023-02-17T01:52:01;98803.86;;;-1.55;83.43
56568;BME280;42456;49.956;20.004;2023-02-17T01:54:35;98797.46;;;-1.52;83.83
56568;BME280;42456;49.956;20.004;2023-02-17T01:57:04;98795.46;;;-1.50;83.97
56568;BME280;42456;49.956;20.004;2023-02-17T01:59:30;98794.08;;;-1.48;84.08
56568;BME280;42456;49.956;20.004;2023-02-17T02:01:59;98792.00;;;-1.48;84.06
56568;BME280;42456;49.956;20.004;2023-02-17T02:04:31;98793.89;;;-1.49;83.72
56568;BME280;42456;49.956;20.004;2023-02-17T02:06:59;98794.48;;;-1.50;84.22
56568;BME280;42456;49.956;20.004;2023-02-17T02:09:34;98793.27;;;-1.51;83.97
56568;BME280;42456;49.956;20.004;2023-02-17T02:12:02;98793.17;;;-1.54;83.90
56568;BME280;42456;49.956;20.004;2023-02-17T02:14:29;98786.41;;;-1.57;83.81
56568;BME280;42456;49.956;20.004;2023-02-17T02:17:07;98787.23;;;-1.59;83.59
56568;BME280;42456;49.956;20.004;2023-02-17T02:19:55;98787.69;;;-1.59;83.93
56568;BME280;42456;49.956;20.004;2023-02-17T02:22:51;98790.45;;;-1.59;84.12
56568;BME280;42456;49.956;20.004;2023-02-17T02:35:58;98787.92;;;-1.52;84.21
56568;BME280;42456;49.956;20.004;2023-02-17T02:38:40;98788.14;;;-1.48;84.30
56568;BME280;42456;49.956;20.004;2023-02-17T02:41:16;98787.20;;;-1.42;84.27
56568;BME280;42456;49.956;20.004;2023-02-17T02:43:46;98792.85;;;-1.34;84.71
56568;BME280;42456;49.956;20.004;2023-02-17T02:46:14;98797.72;;;-1.28;84.71
56568;BME280;42456;49.956;20.004;2023-02-17T02:48:41;98798.77;;;-1.24;84.48
56568;BME280;42456;49.956;20.004;2023-02-17T02:51:19;98799.92;;;-1.22;84.06
56568;BME280;42456;49.956;20.004;2023-02-17T02:57:24;98799.77;;;-1.19;84.33
56568;BME280;42456;49.956;20.004;2023-02-17T03:02:53;98802.68;;;-1.11;84.84
56568;BME280;42456;49.956;20.004;2023-02-17T03:08:35;98801.33;;;-1.20;84.01
56568;BME280;42456;49.956;20.004;2023-02-17T03:11:03;98799.91;;;-1.26;84.31
56568;BME280;42456;49.956;20.004;2023-02-17T03:13:33;98806.83;;;-1.30;84.16
56568;BME280;42456;49.956;20.004;2023-02-17T03:16:06;98807.42;;;-1.35;84.09
56568;BME280;42456;49.956;20.004;2023-02-17T03:18:34;98804.16;;;-1.37;84.32
56568;BME280;42456;49.956;20.004;2023-02-17T03:21:07;98799.17;;;-1.39;84.37
56568;BME280;42456;49.956;20.004;2023-02-17T03:23:36;98796.84;;;-1.40;84.02
56568;BME280;42456;49.956;20.004;2023-02-17T03:26:04;98797.23;;;-1.39;84.42
56568;BME280;42456;49.956;20.004;2023-02-17T03:28:31;98798.63;;;-1.36;84.57
56568;BME280;42456;49.956;20.004;2023-02-17T03:30:58;98792.71;;;-1.34;84.89
56568;BME280;42456;49.956;20.004;2023-02-17T03:33:25;98792.05;;;-1.28;84.42
56568;BME280;42456;49.956;20.004;2023-02-17T03:35:51;98792.71;;;-1.24;84.81
56568;BME280;42456;49.956;20.004;2023-02-17T03:38:18;98792.09;;;-1.20;84.63
56568;BME280;42456;49.956;20.004;2023-02-17T03:40:45;98786.52;;;-1.16;84.82
56568;BME280;42456;49.956;20.004;2023-02-17T03:43:12;98784.89;;;-1.14;84.46
56568;BME280;42456;49.956;20.004;2023-02-17T03:45:38;98781.00;;;-1.14;84.35
56568;BME280;42456;49.956;20.004;2023-02-17T03:48:05;98776.23;;;-1.15;84.06
56568;BME280;42456;49.956;20.004;2023-02-17T03:50:33;98778.09;;;-1.17;84.44
56568;BME280;42456;49.956;20.004;2023-02-17T03:53:00;98776.69;;;-1.19;84.35
56568;BME280;42456;49.956;20.004;2023-02-17T03:55:27;98773.49;;;-1.21;84.57
56568;BME280;42456;49.956;20.004;2023-02-17T03:57:54;98772.98;;;-1.23;84.66
56568;BME280;42456;49.956;20.004;2023-02-17T04:00:20;98772.14;;;-1.24;84.46
56568;BME280;42456;49.956;20.004;2023-02-17T04:02:47;98774.50;;;-1.24;84.45
56568;BME280;42456;49.956;20.004;2023-02-17T04:05:14;98770.52;;;-1.26;84.62
56568;BME280;42456;49.956;20.004;2023-02-17T04:07:41;98769.89;;;-1.26;84.75
56568;BME280;42456;49.956;20.004;2023-02-17T04:10:08;98775.14;;;-1.27;84.69
56568;BME280;42456;49.956;20.004;2023-02-17T04:12:35;98771.12;;;-1.27;84.68
56568;BME280;42456;49.956;20.004;2023-02-17T04:15:02;98770.02;;;-1.27;84.81
56568;BME280;42456;49.956;20.004;2023-02-17T04:17:29;98764.98;;;-1.25;84.56
56568;BME280;42456;49.956;20.004;2023-02-17T04:19:56;98761.80;;;-1.23;84.91
56568;BME280;42456;49.956;20.004;2023-02-17T04:22:23;98758.60;;;-1.21;84.80
56568;BME280;42456;49.956;20.004;2023-02-17T04:24:50;98758.54;;;-1.19;84.80
56568;BME280;42456;49.956;20.004;2023-02-17T04:27:16;98758.11;;;-1.17;85.07
56568;BME280;42456;49.956;20.004;2023-02-17T04:29:43;98761.15;;;-1.13;85.33
56568;BME280;42456;49.956;20.004;2023-02-17T04:32:10;98761.68;;;-1.10;85.11
56568;BME280;42456;49.956;20.004;2023-02-17T04:34:37;98759.58;;;-1.09;85.15
56568;BME280;42456;49.956;20.004;2023-02-17T04:37:03;98760.92;;;-1.08;85.43
56568;BME280;42456;49.956;20.004;2023-02-17T04:39:30;98760.23;;;-1.05;85.09
56568;BME280;42456;49.956;20.004;2023-02-17T04:41:57;98758.55;;;-1.04;85.25
56568;BME280;42456;49.956;20.004;2023-02-17T04:44:24;98755.46;;;-1.02;85.36
56568;BME280;42456;49.956;20.004;2023-02-17T04:46:50;98751.63;;;-1.00;85.37
56568;BME280;42456;49.956;20.004;2023-02-17T04:49:17;98747.08;;;-0.98;85.35
56568;BME280;42456;49.956;20.004;2023-02-17T04:51:44;98746.91;;;-0.95;85.82
56568;BME280;42456;49.956;20.004;2023-02-17T04:54:11;98744.79;;;-0.92;85.60
56568;BME280;42456;49.956;20.004;2023-02-17T04:56:38;98745.90;;;-0.89;85.62
56568;BME280;42456;49.956;20.004;2023-02-17T04:59:04;98744.14;;;-0.84;85.63
56568;BME280;42456;49.956;20.004;2023-02-17T05:01:32;98738.66;;;-0.80;85.70
56568;BME280;42456;49.956;20.004;2023-02-17T05:03:58;98732.06;;;-0.76;86.03
56568;BME280;42456;49.956;20.004;2023-02-17T05:06:25;98732.75;;;-0.73;85.53
56568;BME280;42456;49.956;20.004;2023-02-17T05:08:52;98734.69;;;-0.70;85.84
56568;BME280;42456;49.956;20.004;2023-02-17T05:11:19;98744.23;;;-0.67;85.74
56568;BME280;42456;49.956;20.004;2023-02-17T05:13:46;98747.08;;;-0.63;85.99
56568;BME280;42456;49.956;20.004;2023-02-17T05:16:13;98745.70;;;-0.63;85.65
56568;BME280;42456;49.956;20.004;2023-02-17T05:18:40;98743.29;;;-0.62;85.88
56568;BME280;42456;49.956;20.004;2023-02-17T05:21:06;98741.86;;;-0.62;85.88
56568;BME280;42456;49.956;20.004;2023-02-17T05:23:33;98738.10;;;-0.62;85.97
56568;BME280;42456;49.956;20.004;2023-02-17T05:26:10;98732.52;;;-0.61;86.12
56568;BME280;42456;49.956;20.004;2023-02-17T05:28:37;98730.23;;;-0.57;85.72
56568;BME280;42456;49.956;20.004;2023-02-17T05:31:04;98728.83;;;-0.55;86.47
56568;BME280;42456;49.956;20.004;2023-02-17T05:33:31;98726.30;;;-0.52;85.77
56568;BME280;42456;49.956;20.004;2023-02-17T05:36:06;98728.45;;;-0.47;86.09
56568;BME280;42456;49.956;20.004;2023-02-17T05:38:34;98728.99;;;-0.42;85.92
56568;BME280;42456;49.956;20.004;2023-02-17T05:41:02;98729.09;;;-0.38;86.18
56568;BME280;42456;49.956;20.004;2023-02-17T05:43:29;98728.35;;;-0.34;86.53
56568;BME280;42456;49.956;20.004;2023-02-17T05:46:01;98729.03;;;-0.31;86.28
56568;BME280;42456;49.956;20.004;2023-02-17T05:48:28;98728.42;;;-0.27;86.24
56568;BME280;42456;49.956;20.004;2023-02-17T05:50:55;98731.08;;;-0.22;86.39
56568;BME280;42456;49.956;20.004;2023-02-17T05:53:21;98733.77;;;-0.17;86.68
56568;BME280;42456;49.956;20.004;2023-02-17T05:55:48;98734.60;;;-0.14;86.52
56568;BME280;42456;49.956;20.004;2023-02-17T05:58:15;98732.02;;;-0.09;86.20
56568;BME280;42456;49.956;20.004;2023-02-17T06:00:42;98724.66;;;-0.03;86.57
56568;BME280;42456;49.956;20.004;2023-02-17T06:03:11;98722.73;;;0.06;86.75
56568;BME280;42456;49.956;20.004;2023-02-17T06:05:38;98719.62;;;0.18;86.68
56568;BME280;42456;49.956;20.004;2023-02-17T06:08:06;98718.09;;;0.31;86.89
56568;BME280;42456;49.956;20.004;2023-02-17T06:10:33;98719.34;;;0.47;87.21
56568;BME280;42456;49.956;20.004;2023-02-17T06:12:59;98715.06;;;0.63;86.93
56568;BME280;42456;49.956;20.004;2023-02-17T06:15:26;98713.98;;;0.80;87.01
56568;BME280;42456;49.956;20.004;2023-02-17T06:17:53;98713.44;;;0.96;86.66
56568;BME280;42456;49.956;20.004;2023-02-17T06:20:20;98712.69;;;1.12;86.28
56568;BME280;42456;49.956;20.004;2023-02-17T06:22:46;98708.31;;;1.27;86.02
56568;BME280;42456;49.956;20.004;2023-02-17T06:25:13;98696.61;;;1.41;85.91
56568;BME280;42456;49.956;20.004;2023-02-17T06:27:40;98691.52;;;1.53;85.67
56568;BME280;42456;49.956;20.004;2023-02-17T06:30:10;98688.31;;;1.64;85.75
56568;BME280;42456;49.956;20.004;2023-02-17T06:32:37;98689.45;;;1.76;85.28
56568;BME280;42456;49.956;20.004;2023-02-17T06:35:04;98688.11;;;1.86;84.95
56568;BME280;42456;49.956;20.004;2023-02-17T06:37:31;98686.89;;;1.94;84.64
56568;BME280;42456;49.956;20.004;2023-02-17T06:39:57;98678.52;;;2.02;84.37
56568;BME280;42456;49.956;20.004;2023-02-17T06:42:24;98672.45;;;2.10;84.37
56568;BME280;42456;49.956;20.004;2023-02-17T06:44:51;98676.85;;;2.18;83.94
56568;BME280;42456;49.956;20.004;2023-02-17T06:47:18;98679.02;;;2.26;84.11
56568;BME280;42456;49.956;20.004;2023-02-17T06:49:44;98679.09;;;2.35;83.87
56568;BME280;42456;49.956;20.004;2023-02-17T06:52:11;98672.66;;;2.44;83.88
56568;BME280;42456;49.956;20.004;2023-02-17T06:54:38;98678.06;;;2.53;83.85
56568;BME280;42456;49.956;20.004;2023-02-17T06:57:05;98676.14;;;2.62;83.61
56568;BME280;42456;49.956;20.004;2023-02-17T06:59:31;98682.17;;;2.73;83.23
56568;BME280;42456;49.956;20.004;2023-02-17T07:01:59;98685.52;;;2.83;82.98
56568;BME280;42456;49.956;20.004;2023-02-17T07:04:28;98691.55;;;2.93;83.28
56568;BME280;42456;49.956;20.004;2023-02-17T07:06:55;98697.02;;;3.02;82.90
56568;BME280;42456;49.956;20.004;2023-02-17T07:09:21;98698.16;;;3.11;82.52
56568;BME280;42456;49.956;20.004;2023-02-17T07:11:48;98696.23;;;3.19;82.37
56568;BME280;42456;49.956;20.004;2023-02-17T07:14:16;98702.56;;;3.29;82.63
56568;BME280;42456;49.956;20.004;2023-02-17T07:16:43;98699.92;;;3.40;82.40
56568;BME280;42456;49.956;20.004;2023-02-17T07:19:10;98703.02;;;3.51;82.36
56568;BME280;42456;49.956;20.004;2023-02-17T07:21:37;98703.43;;;3.63;82.30
56568;BME280;42456;49.956;20.004;2023-02-17T07:24:04;98703.70;;;3.74;81.64
56568;BME280;42456;49.956;20.004;2023-02-17T07:26:34;98708.83;;;3.84;81.97
56568;BME280;42456;49.956;20.004;2023-02-17T07:29:01;98709.19;;;3.92;81.72
56568;BME280;42456;49.956;20.004;2023-02-17T07:31:30;98709.31;;;3.99;81.17
56568;BME280;42456;49.956;20.004;2023-02-17T07:33:57;98702.15;;;4.05;81.37
56568;BME280;42456;49.956;20.004;2023-02-17T07:36:24;98701.38;;;4.09;81.07
56568;BME280;42456;49.956;20.004;2023-02-17T07:38:51;98698.58;;;4.13;80.99
56568;BME280;42456;49.956;20.004;2023-02-17T07:41:20;98697.05;;;4.19;80.58
56568;BME280;42456;49.956;20.004;2023-02-17T07:43:48;98697.90;;;4.27;80.52
56568;BME280;42456;49.956;20.004;2023-02-17T07:46:15;98696.88;;;4.34;80.94
56568;BME280;42456;49.956;20.004;2023-02-17T07:48:42;98696.56;;;4.42;80.31
56568;BME280;42456;49.956;20.004;2023-02-17T07:51:11;98695.77;;;4.49;80.41
56568;BME280;42456;49.956;20.004;2023-02-17T07:53:38;98691.55;;;4.57;79.94
56568;BME280;42456;49.956;20.004;2023-02-17T07:56:10;98691.39;;;4.63;79.84
56568;BME280;42456;49.956;20.004;2023-02-17T07:58:38;98681.58;;;4.69;80.02
56568;BME280;42456;49.956;20.004;2023-02-17T08:01:10;98675.05;;;4.77;80.12
56568;BME280;42456;49.956;20.004;2023-02-17T08:03:38;98670.23;;;4.86;79.93
56568;BME280;42456;49.956;20.004;2023-02-17T08:06:10;98669.91;;;4.95;79.89
56568;BME280;42456;49.956;20.004;2023-02-17T08:08:37;98669.23;;;5.05;79.58
56568;BME280;42456;49.956;20.004;2023-02-17T08:11:18;98668.20;;;5.16;79.36
56568;BME280;42456;49.956;20.004;2023-02-17T08:13:59;98667.62;;;5.28;79.60
56568;BME280;42456;49.956;20.004;2023-02-17T08:16:26;98664.81;;;5.40;79.47
56568;BME280;42456;49.956;20.004;2023-02-17T08:18:54;98666.53;;;5.52;79.22
56568;BME280;42456;49.956;20.004;2023-02-17T08:21:22;98662.39;;;5.66;79.31
56568;BME280;42456;49.956;20.004;2023-02-17T08:23:49;98660.02;;;5.76;78.60
56568;BME280;42456;49.956;20.004;2023-02-17T08:26:17;98657.30;;;5.86;78.70
56568;BME280;42456;49.956;20.004;2023-02-17T08:28:44;98648.45;;;5.96;78.37
56568;BME280;42456;49.956;20.004;2023-02-17T08:33:42;98639.80;;;6.13;78.09
56568;BME280;42456;49.956;20.004;2023-02-17T08:36:09;98638.95;;;6.23;77.76
56568;BME280;42456;49.956;20.004;2023-02-17T08:38:37;98638.70;;;6.33;77.75
56568;BME280;42456;49.956;20.004;2023-02-17T08:41:22;98642.52;;;6.44;77.60
56568;BME280;42456;49.956;20.004;2023-02-17T08:43:49;98648.80;;;6.58;77.50
56568;BME280;42456;49.956;20.004;2023-02-17T08:46:17;98648.25;;;6.71;77.58
56568;BME280;42456;49.956;20.004;2023-02-17T08:48:44;98646.07;;;6.83;77.69
56568;BME280;42456;49.956;20.004;2023-02-17T08:51:13;98637.58;;;6.93;77.24
56568;BME280;42456;49.956;20.004;2023-02-17T08:53:41;98629.45;;;7.02;77.15
56568;BME280;42456;49.956;20.004;2023-02-17T08:56:08;98620.17;;;7.14;77.07
56568;BME280;42456;49.956;20.004;2023-02-17T08:58:35;98623.16;;;7.27;76.76
56568;BME280;42456;49.956;20.004;2023-02-17T09:01:02;98621.85;;;7.39;76.80
56568;BME280;42456;49.956;20.004;2023-02-17T09:03:35;98623.61;;;7.55;76.44
56568;BME280;42456;49.956;20.004;2023-02-17T09:06:07;98621.75;;;7.73;75.80
56568;BME280;42456;49.956;20.004;2023-02-17T09:08:35;98619.83;;;7.90;75.67
56568;BME280;42456;49.956;20.004;2023-02-17T09:11:02;98621.30;;;8.05;75.36
56568;BME280;42456;49.956;20.004;2023-02-17T09:13:29;98620.30;;;8.17;75.28
56568;BME280;42456;49.956;20.004;2023-02-17T09:15:57;98620.42;;;8.27;74.81
56568;BME280;42456;49.956;20.004;2023-02-17T09:18:23;98623.90;;;8.32;74.39
56568;BME280;42456;49.956;20.004;2023-02-17T09:20:50;98617.81;;;8.35;74.18
56568;BME280;42456;49.956;20.004;2023-02-17T09:23:17;98618.38;;;8.36;73.78
56568;BME280;42456;49.956;20.004;2023-02-17T09:25:44;98612.17;;;8.36;73.30
56568;BME280;42456;49.956;20.004;2023-02-17T09:28:12;98609.27;;;8.36;73.27
56568;BME280;42456;49.956;20.004;2023-02-17T09:30:42;98607.73;;;8.37;72.71
56568;BME280;42456;49.956;20.004;2023-02-17T09:33:09;98608.34;;;8.39;72.96
56568;BME280;42456;49.956;20.004;2023-02-17T09:35:36;98612.46;;;8.41;72.78
56568;BME280;42456;49.956;20.004;2023-02-17T09:38:03;98611.14;;;8.43;72.81
56568;BME280;42456;49.956;20.004;2023-02-17T09:40:47;98602.34;;;8.43;72.86
56568;BME280;42456;49.956;20.004;2023-02-17T09:43:23;98596.64;;;8.44;72.60
56568;BME280;42456;49.956;20.004;2023-02-17T09:46:29;98596.71;;;8.45;73.07
56568;BME280;42456;49.956;20.004;2023-02-17T09:48:48;98595.13;;;8.49;73.07
56568;BME280;42456;49.956;20.004;2023-02-17T09:51:21;98590.41;;;8.50;72.98
56568;BME280;42456;49.956;20.004;2023-02-17T09:56:35;98581.84;;;8.52;72.89
56568;BME280;42456;49.956;20.004;2023-02-17T09:59:27;98579.27;;;8.56;73.54
56568;BME280;42456;49.956;20.004;2023-02-17T10:01:55;98583.38;;;8.63;73.42
56568;BME280;42456;49.956;20.004;2023-02-17T10:04:34;98582.52;;;8.67;73.43
56568;BME280;42456;49.956;20.004;2023-02-17T10:10:03;98591.34;;;8.70;73.03
56568;BME280;42456;49.956;20.004;2023-02-17T10:12:34;98586.48;;;8.71;72.88
56568;BME280;42456;49.956;20.004;2023-02-17T10:15:09;98588.34;;;8.72;73.28
56568;BME280;42456;49.956;20.004;2023-02-17T10:17:47;98582.45;;;8.75;72.92
56568;BME280;42456;49.956;20.004;2023-02-17T10:20:34;98571.33;;;8.78;72.95
56568;BME280;42456;49.956;20.004;2023-02-17T10:28:21;98557.14;;;8.95;72.78
56568;BME280;42456;49.956;20.004;2023-02-17T10:31:10;98558.02;;;9.00;73.08
56568;BME280;42456;49.956;20.004;2023-02-17T10:33:49;98559.63;;;9.02;72.65
56568;BME280;42456;49.956;20.004;2023-02-17T10:39:11;98552.90;;;9.01;72.65
56568;BME280;42456;49.956;20.004;2023-02-17T10:41:40;98547.34;;;8.98;72.40
56568;BME280;42456;49.956;20.004;2023-02-17T10:44:15;98544.83;;;8.96;72.62
56568;BME280;42456;49.956;20.004;2023-02-17T10:46:46;98542.75;;;8.94;72.28
56568;BME280;42456;49.956;20.004;2023-02-17T10:49:25;98539.77;;;8.93;72.31
56568;BME280;42456;49.956;20.004;2023-02-17T10:51:52;98537.61;;;8.94;72.48
56568;BME280;42456;49.956;20.004;2023-02-17T10:54:34;98539.05;;;8.95;72.18
56568;BME280;42456;49.956;20.004;2023-02-17T10:57:07;98536.91;;;8.98;72.29
56568;BME280;42456;49.956;20.004;2023-02-17T10:59:42;98528.60;;;9.02;72.48
56568;BME280;42456;49.956;20.004;2023-02-17T11:02:21;98523.46;;;9.05;72.27
56568;BME280;42456;49.956;20.004;2023-02-17T11:04:50;98517.25;;;9.09;72.20
56568;BME280;42456;49.956;20.004;2023-02-17T11:07:23;98516.88;;;9.12;72.33
56568;BME280;42456;49.956;20.004;2023-02-17T11:09:58;98517.93;;;9.17;72.35
56568;BME280;42456;49.956;20.004;2023-02-17T11:12:31;98513.29;;;9.16;72.01
56568;BME280;42456;49.956;20.004;2023-02-17T11:15:02;98513.19;;;9.10;72.02
56568;BME280;42456;49.956;20.004;2023-02-17T11:17:38;98506.95;;;9.07;71.93
56568;BME280;42456;49.956;20.004;2023-02-17T11:20:24;98505.98;;;9.05;72.36
56568;BME280;42456;49.956;20.004;2023-02-17T11:23:20;98501.88;;;9.08;72.57
56568;BME280;42456;49.956;20.004;2023-02-17T11:25:58;98496.48;;;9.09;72.57
56568;BME280;42456;49.956;20.004;2023-02-17T11:28:25;98490.92;;;9.06;72.64
56568;BME280;42456;49.956;20.004;2023-02-17T11:30:56;98487.05;;;9.04;72.50
56568;BME280;42456;49.956;20.004;2023-02-17T11:33:33;98484.66;;;9.00;72.70
56568;BME280;42456;49.956;20.004;2023-02-17T11:36:01;98481.15;;;8.96;72.64
56568;BME280;42456;49.956;20.004;2023-02-17T11:41:02;98472.52;;;8.88;72.68
56568;BME280;42456;49.956;20.004;2023-02-17T11:43:30;98475.35;;;8.87;72.70
56568;BME280;42456;49.956;20.004;2023-02-17T11:46:10;98472.85;;;8.82;72.72
56568;BME280;42456;49.956;20.004;2023-02-17T11:48:57;98468.37;;;8.78;72.55
56568;BME280;42456;49.956;20.004;2023-02-17T11:57:12;98453.38;;;8.79;72.18
56568;BME280;42456;49.956;20.004;2023-02-17T12:03:01;98443.26;;;8.80;72.38
56568;BME280;42456;49.956;20.004;2023-02-17T12:08:12;98432.66;;;8.81;71.51
56568;BME280;42456;49.956;20.004;2023-02-17T12:13:41;98431.02;;;8.77;71.68
56568;BME280;42456;49.956;20.004;2023-02-17T12:17:02;98428.52;;;8.73;71.49
56568;BME280;42456;49.956;20.004;2023-02-17T12:27:32;98420.33;;;8.42;71.61
56568;BME280;42456;49.956;20.004;2023-02-17T12:30:37;98415.52;;;8.40;71.57
56568;BME280;42456;49.956;20.004;2023-02-17T12:35:53;98413.48;;;8.42;71.63
56568;BME280;42456;49.956;20.004;2023-02-17T12:38:28;98411.80;;;8.50;71.93
56568;BME280;42456;49.956;20.004;2023-02-17T12:41:10;98410.90;;;8.59;71.97
56568;BME280;42456;49.956;20.004;2023-02-17T12:43:43;98412.35;;;8.66;71.95
56568;BME280;42456;49.956;20.004;2023-02-17T12:46:17;98416.46;;;8.71;71.68
56568;BME280;42456;49.956;20.004;2023-02-17T12:48:50;98411.16;;;8.76;71.78
56568;BME280;42456;49.956;20.004;2023-02-17T12:59:36;98396.43;;;8.73;71.42
56568;BME280;42456;49.956;20.004;2023-02-17T13:02:09;98394.17;;;8.71;71.43
56568;BME280;42456;49.956;20.004;2023-02-17T13:04:38;98390.52;;;8.70;71.62
56568;BME280;42456;49.956;20.004;2023-02-17T13:10:00;98392.15;;;8.64;71.22
56568;BME280;42456;49.956;20.004;2023-02-17T13:17:39;98396.04;;;8.55;71.68
56568;BME280;42456;49.956;20.004;2023-02-17T13:22:37;98386.28;;;8.48;71.49
56568;BME280;42456;49.956;20.004;2023-02-17T13:25:06;98381.38;;;8.43;71.57
56568;BME280;42456;49.956;20.004;2023-02-17T13:27:37;98377.68;;;8.40;71.71
56568;BME280;42456;49.956;20.004;2023-02-17T13:30:26;98371.71;;;8.35;71.64
56568;BME280;42456;49.956;20.004;2023-02-17T13:33:01;98366.77;;;8.29;71.71
56568;BME280;42456;49.956;20.004;2023-02-17T13:35:33;98364.09;;;8.26;71.75
56568;BME280;42456;49.956;20.004;2023-02-17T13:38:00;98361.13;;;8.23;71.74
56568;BME280;42456;49.956;20.004;2023-02-17T13:40:38;98358.26;;;8.21;71.71
56568;BME280;42456;49.956;20.004;2023-02-17T13:43:17;98350.02;;;8.21;71.79
56568;BME280;42456;49.956;20.004;2023-02-17T13:45:46;98347.91;;;8.21;71.76
56568;BME280;42456;49.956;20.004;2023-02-17T13:50:50;98338.58;;;8.21;71.82
56568;BME280;42456;49.956;20.004;2023-02-17T13:55:48;98335.52;;;8.22;71.99
56568;BME280;42456;49.956;20.004;2023-02-17T13:58:21;98323.85;;;8.21;72.15
56568;BME280;42456;49.956;20.004;2023-02-17T14:00:48;98316.77;;;8.23;72.04
56568;BME280;42456;49.956;20.004;2023-02-17T14:03:22;98317.68;;;8.24;72.12
56568;BME280;42456;49.956;20.004;2023-02-17T14:05:52;98313.25;;;8.26;72.01
56568;BME280;42456;49.956;20.004;2023-02-17T14:08:22;98305.08;;;8.26;72.00
56568;BME280;42456;49.956;20.004;2023-02-17T14:10:52;98298.91;;;8.27;72.09
56568;BME280;42456;49.956;20.004;2023-02-17T14:13:21;98295.29;;;8.26;71.90
56568;BME280;42456;49.956;20.004;2023-02-17T14:15:59;98292.38;;;8.25;72.05
56568;BME280;42456;49.956;20.004;2023-02-17T14:18:38;98292.94;;;8.24;72.16
56568;BME280;42456;49.956;20.004;2023-02-17T14:21:23;98290.04;;;8.21;72.07
56568;BME280;42456;49.956;20.004;2023-02-17T14:23:55;98281.05;;;8.19;72.41
56568;BME280;42456;49.956;20.004;2023-02-17T14:28:59;98272.09;;;8.14;72.39
56568;BME280;42456;49.956;20.004;2023-02-17T14:31:26;98274.27;;;8.13;72.38
56568;BME280;42456;49.956;20.004;2023-02-17T14:33:59;98269.48;;;8.12;72.42
56568;BME280;42456;49.956;20.004;2023-02-17T14:36:30;98263.64;;;8.10;72.59
56568;BME280;42456;49.956;20.004;2023-02-17T14:38:59;98260.61;;;8.09;72.88
56568;BME280;42456;49.956;20.004;2023-02-17T14:41:26;98259.10;;;8.10;72.69
56568;BME280;42456;49.956;20.004;2023-02-17T14:43:53;98252.58;;;8.09;72.47